Time;durP1;ratioP1;P1;durP2;ratioP2;P2;SDS_P1;SDS_P2;PMS_P1;PMS_P2;Temp;Humidity;BMP_temperature;BMP_pressure;BME280_temperature;BME280_humidity;BME280_pressure;Samples;Min_cycle;Max_cycle;Signal;HPM_P1;HPM_P2
2021/10/23 00:00:48;;;;;;;13.30;1.65;;;8.50;95.60;;;;;;5033404;28;20030;-74
2021/10/23 00:03:14;;;;;;;14.50;2.75;;;8.50;95.60;;;;;;5033733;28;20051;-74
2021/10/23 00:05:39;;;;;;;15.10;2.10;;;8.30;95.70;;;;;;5033443;28;20053;-72
2021/10/23 00:08:05;;;;;;;21.80;2.80;;;8.50;95.70;;;;;;5033615;28;20098;-72
2021/10/23 00:10:31;;;;;;;13.65;1.83;;;8.40;95.60;;;;;;5033310;28;20080;-73
2021/10/23 00:12:59;;;;;;;16.20;1.98;;;8.50;95.60;;;;;;5032673;28;20048;-76
2021/10/23 00:15:25;;;;;;;11.18;1.77;;;8.50;95.50;;;;;;5033529;28;20033;-72
2021/10/23 00:17:50;;;;;;;11.98;2.05;;;8.50;95.50;;;;;;5033289;28;20112;-74
2021/10/23 00:20:16;;;;;;;15.65;2.63;;;8.40;95.70;;;;;;5033584;28;20117;-73
2021/10/23 00:22:42;;;;;;;16.05;2.20;;;8.50;95.60;;;;;;5033133;28;20699;-74
2021/10/23 00:25:08;;;;;;;11.43;2.70;;;8.50;95.60;;;;;;5033547;28;20029;-73
2021/10/23 00:27:34;;;;;;;13.02;2.50;;;8.50;95.40;;;;;;5032985;28;20036;-73
2021/10/23 00:29:59;;;;;;;19.75;2.90;;;8.50;95.40;;;;;;5032993;28;20029;-72
2021/10/23 00:32:29;;;;;;;17.20;2.63;;;8.50;95.40;;;;;;5033263;28;20025;-73
2021/10/23 00:34:54;;;;;;;12.82;1.73;;;8.50;95.30;;;;;;5032956;28;20035;-72
2021/10/23 00:37:20;;;;;;;15.27;2.45;;;8.60;95.70;;;;;;5033433;28;20025;-73
2021/10/23 00:39:46;;;;;;;8.18;1.95;;;8.50;95.20;;;;;;5032796;28;20030;-72
2021/10/23 00:42:15;;;;;;;11.95;2.13;;;8.50;95.40;;;;;;5033025;28;20029;-73
2021/10/23 00:44:42;;;;;;;12.30;1.70;;;8.50;95.40;;;;;;5032715;28;20072;-72
2021/10/23 00:47:16;;;;;;;12.90;2.70;;;8.50;95.30;;;;;;5032950;28;20075;-72
2021/10/23 00:49:42;;;;;;;14.48;2.22;;;8.50;95.40;;;;;;5032697;28;20025;-73
2021/10/23 00:52:08;;;;;;;11.73;2.15;;;8.40;95.40;;;;;;5033150;28;20021;-73
2021/10/23 00:54:34;;;;;;;16.45;2.00;;;8.50;95.40;;;;;;5032499;28;20108;-73
2021/10/23 00:57:01;;;;;;;14.52;1.98;;;8.50;95.30;;;;;;5032409;28;20041;-72
2021/10/23 00:59:29;;;;;;;15.27;2.50;;;8.40;95.30;;;;;;5032392;28;20029;-73
2021/10/23 01:01:54;;;;;;;11.75;1.80;;;8.30;95.30;;;;;;5032388;28;20037;-73
2021/10/23 01:04:22;;;;;;;10.80;1.80;;;8.40;95.40;;;;;;5032521;28;20048;-73
2021/10/23 01:06:49;;;;;;;20.45;1.83;;;8.40;95.40;;;;;;5032360;28;20040;-73
2021/10/23 01:09:15;;;;;;;18.13;2.22;;;8.30;95.30;;;;;;5032519;28;20110;-74
2021/10/23 01:11:42;;;;;;;16.08;1.92;;;8.30;95.40;;;;;;5032175;28;20449;-73
2021/10/23 01:14:12;;;;;;;9.90;1.40;;;8.30;95.40;;;;;;5032270;28;20029;-73
2021/10/23 01:16:40;;;;;;;8.80;2.00;;;8.30;95.40;;;;;;5032036;28;20304;-72
2021/10/23 01:19:08;;;;;;;15.77;2.17;;;8.40;95.40;;;;;;5032468;28;20045;-73
2021/10/23 01:21:33;;;;;;;12.27;1.83;;;8.40;95.30;;;;;;5032234;28;20034;-73
2021/10/23 01:23:59;;;;;;;19.63;2.80;;;8.40;95.30;;;;;;5031837;28;20037;-73
2021/10/23 01:26:24;;;;;;;9.98;1.80;;;8.40;95.30;;;;;;5030954;28;20041;-73
2021/10/23 01:28:51;;;;;;;15.68;1.90;;;8.40;95.20;;;;;;5030898;28;20108;-72
2021/10/23 01:31:18;;;;;;;14.70;1.50;;;8.40;95.20;;;;;;5032411;28;20025;-73
2021/10/23 01:33:45;;;;;;;12.55;2.47;;;8.30;95.20;;;;;;5030850;28;20096;-73
2021/10/23 01:36:15;;;;;;;12.60;2.17;;;8.30;95.40;;;;;;5042893;28;20094;-73
2021/10/23 01:38:41;;;;;;;7.22;1.63;;;8.30;95.40;;;;;;5051931;28;20068;-74
2021/10/23 01:41:07;;;;;;;17.35;1.83;;;8.40;95.30;;;;;;5051604;28;20056;-74
2021/10/23 01:43:33;;;;;;;15.13;2.05;;;8.30;95.30;;;;;;5051765;28;20021;-73
2021/10/23 01:45:59;;;;;;;16.33;2.35;;;8.30;95.30;;;;;;5051806;28;20029;-73
2021/10/23 01:48:25;;;;;;;12.00;2.53;;;8.20;95.40;;;;;;5051899;28;20029;-73
2021/10/23 01:50:50;;;;;;;9.27;1.30;;;8.30;95.40;;;;;;5051449;28;20037;-73
2021/10/23 01:53:16;;;;;;;15.40;2.28;;;8.20;95.40;;;;;;5051666;28;20367;-72
2021/10/23 01:55:42;;;;;;;11.48;1.48;;;8.20;95.50;;;;;;5051602;28;20332;-73
2021/10/23 01:58:09;;;;;;;14.50;1.95;;;8.20;95.50;;;;;;5051813;28;20351;-72
2021/10/23 02:00:35;;;;;;;8.20;1.77;;;8.20;95.40;;;;;;5050428;28;20326;-73
2021/10/23 02:03:00;;;;;;;13.95;1.92;;;8.20;95.50;;;;;;5050062;28;20141;-73
2021/10/23 02:05:26;;;;;;;16.52;2.15;;;8.10;95.50;;;;;;5051680;28;20033;-72
2021/10/23 02:07:51;;;;;;;15.63;2.45;;;8.10;95.60;;;;;;5051230;28;20056;-73
2021/10/23 02:10:17;;;;;;;8.80;1.90;;;8.20;95.70;;;;;;5051694;28;20110;-73
2021/10/23 02:12:43;;;;;;;15.88;2.15;;;8.20;95.60;;;;;;5050964;28;20060;-73
2021/10/23 02:15:09;;;;;;;19.35;2.33;;;8.20;95.80;;;;;;5051023;28;20024;-74
2021/10/23 02:17:35;;;;;;;14.32;1.98;;;8.20;95.60;;;;;;5050568;28;20033;-74
2021/10/23 02:20:03;;;;;;;11.10;1.65;;;8.30;95.50;;;;;;5051029;28;20043;-74
2021/10/23 02:22:28;;;;;;;10.70;1.35;;;8.30;95.60;;;;;;5050983;28;20017;-74
2021/10/23 02:24:54;;;;;;;13.82;2.25;;;8.30;95.50;;;;;;5050393;28;20024;-73
2021/10/23 02:27:21;;;;;;;13.10;2.78;;;8.30;95.40;;;;;;5050862;28;20057;-73
2021/10/23 02:29:46;;;;;;;11.77;2.17;;;8.20;95.60;;;;;;5051085;28;20525;-73
2021/10/23 02:32:12;;;;;;;14.57;2.28;;;8.20;95.70;;;;;;5051123;28;20104;-73
2021/10/23 02:34:38;;;;;;;14.10;2.08;;;8.20;95.60;;;;;;5051074;28;20021;-73
2021/10/23 02:37:04;;;;;;;12.27;2.10;;;8.30;95.60;;;;;;5051097;28;20024;-73
2021/10/23 02:39:30;;;;;;;14.88;2.20;;;8.20;95.60;;;;;;5051118;28;20025;-74
2021/10/23 02:41:55;;;;;;;10.07;1.52;;;8.20;95.60;;;;;;5050902;28;20041;-73
2021/10/23 02:44:21;;;;;;;17.80;2.22;;;8.10;95.70;;;;;;5050862;28;20029;-74
2021/10/23 02:46:46;;;;;;;12.60;2.17;;;8.20;95.80;;;;;;5050717;28;20029;-73
2021/10/23 02:49:12;;;;;;;11.00;1.85;;;8.30;95.60;;;;;;5051130;28;20099;-72
2021/10/23 02:51:38;;;;;;;9.77;2.25;;;8.30;95.60;;;;;;5051191;28;20512;-72
2021/10/23 02:54:03;;;;;;;14.68;2.38;;;8.10;95.80;;;;;;5050862;28;20029;-73
2021/10/23 02:56:29;;;;;;;12.77;1.83;;;8.20;95.80;;;;;;5050715;28;20057;-73
2021/10/23 02:58:54;;;;;;;7.97;2.00;;;8.20;95.80;;;;;;5050594;28;20029;-73
2021/10/23 03:01:20;;;;;;;11.52;2.47;;;8.20;95.70;;;;;;5050918;28;20435;-73
2021/10/23 03:03:45;;;;;;;17.40;2.13;;;8.20;95.70;;;;;;5050666;28;20357;-74
2021/10/23 03:06:11;;;;;;;10.43;1.50;;;8.10;95.80;;;;;;5050553;28;20064;-73
2021/10/23 03:08:37;;;;;;;12.60;2.90;;;8.20;95.80;;;;;;5049678;28;20375;-73
2021/10/23 03:11:04;;;;;;;15.85;2.03;;;8.20;95.70;;;;;;5049103;28;20037;-73
2021/10/23 03:13:30;;;;;;;11.27;2.60;;;8.20;95.70;;;;;;5050775;28;20029;-73
2021/10/23 03:15:56;;;;;;;16.25;1.88;;;8.20;95.70;;;;;;5050961;28;20525;-74
2021/10/23 03:18:23;;;;;;;17.30;2.08;;;8.30;95.70;;;;;;5050567;28;20510;-73
2021/10/23 03:20:48;;;;;;;16.98;1.73;;;8.30;95.60;;;;;;5050473;28;20473;-74
2021/10/23 03:23:16;;;;;;;10.85;1.38;;;8.10;95.80;;;;;;5050311;28;20036;-74
2021/10/23 03:25:45;;;;;;;12.25;1.92;;;8.10;95.90;;;;;;5050808;28;20083;-74
2021/10/23 03:28:11;;;;;;;18.38;1.85;;;8.20;95.80;;;;;;5052676;28;20028;-74
2021/10/23 03:30:37;;;;;;;10.32;1.67;;;8.20;95.80;;;;;;5053342;28;20032;-74
2021/10/23 03:33:02;;;;;;;12.95;1.90;;;8.30;95.80;;;;;;5054261;28;20063;-74
2021/10/23 03:35:28;;;;;;;18.38;2.50;;;8.30;95.80;;;;;;5053997;28;20059;-73
2021/10/23 03:37:54;;;;;;;11.20;1.88;;;8.30;95.80;;;;;;5054010;28;20037;-73
2021/10/23 03:40:20;;;;;;;13.75;2.08;;;8.30;95.70;;;;;;5054743;28;20021;-73
2021/10/23 03:42:45;;;;;;;10.27;1.60;;;8.30;95.70;;;;;;5054146;28;20025;-72
2021/10/23 03:45:11;;;;;;;11.00;1.10;;;8.30;95.70;;;;;;5053948;28;20061;-73
2021/10/23 03:47:36;;;;;;;18.05;2.42;;;8.20;95.70;;;;;;5054137;28;20036;-73
2021/10/23 03:50:04;;;;;;;13.50;2.55;;;8.30;95.80;;;;;;5053657;28;20029;-73
2021/10/23 03:52:30;;;;;;;8.75;1.58;;;8.30;95.80;;;;;;5053805;28;20117;-73
2021/10/23 03:54:56;;;;;;;12.93;1.88;;;8.30;95.80;;;;;;5054605;28;20036;-73
2021/10/23 03:57:22;;;;;;;17.63;2.03;;;8.40;95.90;;;;;;5053672;28;20033;-73
2021/10/23 03:59:48;;;;;;;17.13;1.88;;;8.40;96.00;;;;;;5053707;28;20040;-73
2021/10/23 04:02:14;;;;;;;10.90;1.42;;;8.30;95.80;;;;;;5052532;28;20553;-73
2021/10/23 04:04:39;;;;;;;13.70;2.00;;;8.20;95.90;;;;;;5053596;28;20048;-73
2021/10/23 04:07:05;;;;;;;6.53;1.20;;;8.30;96.00;;;;;;5053943;28;20021;-74
2021/10/23 04:09:30;;;;;;;8.57;1.35;;;8.30;95.90;;;;;;5053444;28;20467;-73
2021/10/23 04:11:56;;;;;;;9.25;1.85;;;8.30;95.90;;;;;;5051911;28;20056;-74
2021/10/23 04:14:22;;;;;;;11.90;1.52;;;8.20;96.00;;;;;;5053277;28;20041;-73
2021/10/23 04:16:48;;;;;;;9.10;1.75;;;8.20;96.00;;;;;;5053399;28;20025;-73
2021/10/23 04:19:14;;;;;;;17.60;1.75;;;8.20;96.00;;;;;;5053746;28;20036;-73
2021/10/23 04:21:39;;;;;;;13.13;2.53;;;8.20;96.00;;;;;;5053370;28;20103;-74
2021/10/23 04:24:05;;;;;;;16.02;1.85;;;8.20;95.90;;;;;;5053184;28;20033;-74
2021/10/23 04:26:31;;;;;;;13.77;2.00;;;8.20;96.00;;;;;;5051542;28;20037;-73
2021/10/23 04:28:56;;;;;;;14.23;2.20;;;8.20;95.90;;;;;;5053061;28;20415;-73
2021/10/23 04:31:22;;;;;;;14.90;2.17;;;8.20;96.10;;;;;;5053298;28;20115;-73
2021/10/23 04:33:48;;;;;;;17.10;2.75;;;8.00;96.10;;;;;;5052914;28;20541;-73
2021/10/23 04:36:14;;;;;;;13.82;2.13;;;8.00;96.10;;;;;;5052941;28;20094;-74
2021/10/23 04:38:39;;;;;;;14.25;1.55;;;8.00;96.30;;;;;;5052730;28;20033;-73
2021/10/23 04:41:05;;;;;;;8.38;1.67;;;8.30;96.20;;;;;;5052298;28;20087;-74
2021/10/23 04:43:31;;;;;;;6.85;1.25;;;8.20;96.10;;;;;;5052814;28;20032;-75
2021/10/23 04:45:56;;;;;;;13.13;1.70;;;8.20;96.00;;;;;;5053251;28;20052;-75
2021/10/23 04:48:22;;;;;;;10.52;1.95;;;8.20;96.00;;;;;;5052735;28;20068;-75
2021/10/23 04:50:48;;;;;;;7.22;1.60;;;8.30;96.00;;;;;;5052828;28;20025;-75
2021/10/23 04:53:13;;;;;;;9.60;1.85;;;8.30;96.00;;;;;;5052570;28;20033;-74
2021/10/23 04:55:39;;;;;;;8.88;1.27;;;8.30;96.00;;;;;;5052668;28;20033;-74
2021/10/23 04:58:04;;;;;;;8.88;1.55;;;8.30;96.00;;;;;;5052732;28;20355;-74
2021/10/23 05:00:30;;;;;;;11.55;2.03;;;8.40;96.00;;;;;;5052521;28;20030;-74
2021/10/23 05:02:56;;;;;;;8.98;1.85;;;8.40;96.00;;;;;;5052580;28;20044;-74
2021/10/23 05:05:21;;;;;;;4.47;1.25;;;8.50;96.00;;;;;;5052322;28;20045;-74
2021/10/23 05:07:47;;;;;;;13.27;1.63;;;8.50;95.90;;;;;;5051412;28;20041;-74
2021/10/23 05:10:15;;;;;;;13.73;2.80;;;8.50;95.90;;;;;;5052267;28;20029;-74
2021/10/23 05:12:41;;;;;;;10.38;1.85;;;8.50;95.80;;;;;;5052100;28;20047;-74
2021/10/23 05:15:07;;;;;;;13.45;1.52;;;8.60;95.90;;;;;;5050674;28;20043;-74
2021/10/23 05:17:33;;;;;;;10.32;1.83;;;8.40;96.00;;;;;;5051794;28;20063;-74
2021/10/23 05:19:59;;;;;;;10.90;1.75;;;8.50;96.10;;;;;;5052019;28;20048;-73
2021/10/23 05:22:24;;;;;;;13.43;1.83;;;8.60;96.00;;;;;;5052345;28;20036;-73
2021/10/23 05:24:50;;;;;;;11.27;1.83;;;8.50;96.10;;;;;;5051887;28;20025;-74
2021/10/23 05:27:16;;;;;;;9.18;1.50;;;8.50;96.00;;;;;;5051739;28;20551;-73
2021/10/23 05:29:42;;;;;;;20.20;1.88;;;8.50;96.10;;;;;;5051593;28;20048;-74
2021/10/23 05:32:08;;;;;;;10.60;1.58;;;8.50;96.10;;;;;;5051618;28;20051;-75
2021/10/23 05:34:34;;;;;;;17.52;2.35;;;8.60;96.10;;;;;;5051554;28;20021;-73
2021/10/23 05:36:59;;;;;;;15.50;1.77;;;8.60;95.90;;;;;;5051831;28;20109;-74
2021/10/23 05:39:25;;;;;;;8.88;1.92;;;8.70;96.10;;;;;;5050212;28;20124;-74
2021/10/23 05:41:51;;;;;;;12.75;1.27;;;8.60;96.00;;;;;;5051393;28;20029;-73
2021/10/23 05:44:16;;;;;;;10.85;1.50;;;8.70;96.00;;;;;;5051306;28;20040;-74
2021/10/23 05:46:42;;;;;;;14.95;1.73;;;8.70;95.90;;;;;;5051338;28;20025;-74
2021/10/23 05:49:08;;;;;;;9.70;1.67;;;8.70;95.80;;;;;;5050598;28;20346;-74
2021/10/23 05:51:34;;;;;;;14.93;2.00;;;8.70;95.90;;;;;;5050149;28;20029;-75
2021/10/23 05:54:00;;;;;;;14.70;1.85;;;8.70;95.90;;;;;;5051383;28;20036;-74
2021/10/23 05:56:26;;;;;;;11.82;1.73;;;8.60;96.00;;;;;;5051155;28;20486;-75
2021/10/23 05:58:58;;;;;;;12.30;1.63;;;8.60;96.00;;;;;;5051215;28;20029;-75
2021/10/23 06:01:24;;;;;;;8.43;1.75;;;8.70;96.00;;;;;;5051266;28;20021;-74
2021/10/23 06:03:49;;;;;;;10.75;1.73;;;8.70;96.00;;;;;;5051008;28;20520;-75
2021/10/23 06:06:17;;;;;;;10.68;1.52;;;8.70;96.00;;;;;;5049975;28;20466;-74
2021/10/23 06:08:43;;;;;;;10.70;2.13;;;8.70;95.90;;;;;;5051092;28;20029;-74
2021/10/23 06:11:08;;;;;;;12.27;1.73;;;8.80;95.90;;;;;;5050725;28;20040;-74
2021/10/23 06:13:34;;;;;;;12.30;1.45;;;8.90;95.70;;;;;;5050908;28;20456;-74
2021/10/23 06:16:00;;;;;;;9.65;1.50;;;8.70;95.80;;;;;;5051534;28;20021;-75
2021/10/23 06:18:26;;;;;;;7.65;1.83;;;8.80;95.80;;;;;;5050647;28;20029;-72
2021/10/23 06:20:52;;;;;;;22.13;1.80;;;8.80;95.70;;;;;;5047924;28;20037;-73
2021/10/23 06:23:17;;;;;;;17.00;2.17;;;8.80;95.80;;;;;;5050555;28;20048;-74
2021/10/23 06:25:43;;;;;;;12.10;2.33;;;8.80;95.70;;;;;;5050625;28;20139;-74
2021/10/23 06:28:08;;;;;;;5.97;1.58;;;8.80;95.80;;;;;;5051487;28;20083;-75
2021/10/23 06:30:34;;;;;;;10.10;1.70;;;8.80;95.70;;;;;;5049491;28;20045;-73
2021/10/23 06:33:00;;;;;;;20.90;2.05;;;8.80;95.80;;;;;;5051335;28;20043;-73
2021/10/23 06:35:26;;;;;;;12.07;1.70;;;8.80;95.80;;;;;;5050671;28;20039;-74
2021/10/23 06:37:52;;;;;;;8.88;2.10;;;8.80;95.80;;;;;;5050916;28;20134;-72
2021/10/23 06:40:18;;;;;;;5.82;1.20;;;8.90;95.80;;;;;;5050939;28;20028;-73
2021/10/23 06:42:44;;;;;;;12.98;1.85;;;8.80;95.70;;;;;;5048916;28;20029;-74
2021/10/23 06:45:14;;;;;;;10.75;2.15;;;9.00;95.80;;;;;;5050678;28;20032;-74
2021/10/23 06:47:40;;;;;;;12.45;1.83;;;9.00;95.80;;;;;;5050809;28;20033;-74
2021/10/23 06:50:08;;;;;;;14.65;2.35;;;9.10;95.60;;;;;;5050190;28;20494;-72
2021/10/23 06:52:34;;;;;;;13.55;1.80;;;9.10;95.70;;;;;;5050329;28;20056;-75
2021/10/23 06:55:00;;;;;;;14.63;2.20;;;9.10;95.50;;;;;;5049927;28;20120;-75
2021/10/23 06:57:25;;;;;;;15.18;2.92;;;9.20;95.70;;;;;;5050367;28;20514;-72
2021/10/23 06:59:51;;;;;;;19.83;2.53;;;9.20;95.60;;;;;;5050431;28;20037;-73
2021/10/23 07:02:17;;;;;;;7.05;1.30;;;9.20;95.60;;;;;;5049887;28;20029;-71
2021/10/23 07:04:43;;;;;;;10.98;2.00;;;9.20;95.60;;;;;;5053879;28;20029;-71
2021/10/23 07:07:09;;;;;;;14.32;1.95;;;9.30;95.70;;;;;;5053736;28;20033;-72
2021/10/23 07:09:34;;;;;;;7.32;2.17;;;9.10;95.70;;;;;;5054345;28;20462;-72
2021/10/23 07:12:00;;;;;;;6.22;1.38;;;9.30;95.90;;;;;;5054228;28;20053;-73
2021/10/23 07:14:25;;;;;;;15.75;2.10;;;9.30;95.80;;;;;;5053207;28;20025;-74
2021/10/23 07:16:51;;;;;;;12.93;1.70;;;9.30;95.80;;;;;;5054325;28;20070;-73
2021/10/23 07:19:16;;;;;;;11.35;2.53;;;9.40;95.70;;;;;;5054689;28;20028;-74
2021/10/23 07:21:42;;;;;;;9.90;1.27;;;9.30;95.80;;;;;;5054256;28;20021;-74
2021/10/23 07:24:08;;;;;;;8.07;1.35;;;9.40;95.70;;;;;;5054227;28;20076;-75
2021/10/23 07:26:35;;;;;;;14.95;1.90;;;9.40;95.60;;;;;;5054070;28;20033;-74
2021/10/23 07:29:02;;;;;;;13.73;2.38;;;9.40;95.70;;;;;;5054466;28;20136;-74
2021/10/23 07:31:27;;;;;;;18.25;3.80;;;9.50;95.70;;;;;;5053874;28;20032;-74
2021/10/23 07:33:53;;;;;;;9.98;1.55;;;9.60;95.60;;;;;;5052940;28;20385;-73
2021/10/23 07:36:18;;;;;;;7.43;1.80;;;9.50;95.40;;;;;;5054220;28;20037;-74
2021/10/23 07:38:45;;;;;;;11.23;2.22;;;9.50;95.50;;;;;;5053943;28;20060;-74
2021/10/23 07:41:10;;;;;;;14.93;3.38;;;9.70;95.50;;;;;;5053892;28;20053;-72
2021/10/23 07:43:36;;;;;;;13.23;2.22;;;9.70;95.50;;;;;;5053727;28;20025;-73
2021/10/23 07:46:02;;;;;;;5.80;1.20;;;9.70;95.40;;;;;;5054216;28;20021;-71
2021/10/23 07:48:27;;;;;;;17.05;1.90;;;9.80;95.30;;;;;;5053754;28;20041;-70
2021/10/23 07:50:53;;;;;;;6.20;1.50;;;9.70;95.30;;;;;;5053366;28;20102;-69
2021/10/23 07:53:20;;;;;;;7.30;1.88;;;9.70;95.30;;;;;;5053332;28;20048;-70
2021/10/23 07:55:46;;;;;;;17.40;2.30;;;9.80;95.30;;;;;;5052444;28;20715;-72
2021/10/23 07:58:12;;;;;;;14.73;2.13;;;9.80;95.20;;;;;;5053784;28;20232;-72
2021/10/23 08:00:39;;;;;;;11.63;1.90;;;9.90;95.10;;;;;;5052152;28;20021;-72
2021/10/23 08:03:04;;;;;;;15.63;2.75;;;9.80;95.00;;;;;;5053097;28;20033;-73
2021/10/23 08:05:34;;;;;;;12.70;1.85;;;9.90;95.20;;;;;;5053184;28;20064;-72
2021/10/23 08:08:00;;;;;;;13.02;2.30;;;10.10;94.60;;;;;;5053217;28;20090;-73
2021/10/23 08:10:27;;;;;;;13.52;1.83;;;10.20;94.40;;;;;;5053283;28;20128;-72
2021/10/23 08:12:53;;;;;;;13.57;1.80;;;10.20;94.10;;;;;;5053395;28;20021;-71
2021/10/23 08:15:21;;;;;;;8.95;1.88;;;10.30;94.40;;;;;;5051942;28;20045;-72
2021/10/23 08:17:46;;;;;;;10.88;1.77;;;10.40;93.90;;;;;;5052895;28;20117;-74
2021/10/23 08:20:13;;;;;;;7.82;1.55;;;10.50;93.90;;;;;;5052892;28;20519;-70
2021/10/23 08:22:39;;;;;;;19.15;2.30;;;10.60;93.90;;;;;;5052425;28;20063;-69
2021/10/23 08:25:08;;;;;;;8.45;1.88;;;10.70;93.60;;;;;;5052969;28;20108;-70
2021/10/23 08:27:35;;;;;;;13.90;2.00;;;10.80;93.80;;;;;;5052559;28;20040;-70
2021/10/23 08:30:06;;;;;;;8.60;1.85;;;11.20;93.90;;;;;;5052360;28;20386;-70
2021/10/23 08:32:31;;;;;;;7.90;1.52;;;11.30;93.60;;;;;;5052235;28;20062;-70
2021/10/23 08:34:58;;;;;;;9.13;1.60;;;11.20;93.00;;;;;;5052659;28;20104;-70
2021/10/23 08:37:24;;;;;;;16.55;2.05;;;11.20;93.40;;;;;;5052844;28;20078;-69
2021/10/23 08:39:50;;;;;;;16.55;3.38;;;11.20;92.90;;;;;;5052259;28;20037;-70
2021/10/23 08:42:17;;;;;;;16.55;3.78;;;11.20;93.00;;;;;;5052139;28;20032;-70
2021/10/23 08:44:43;;;;;;;9.85;1.85;;;11.10;92.90;;;;;;5051033;28;20422;-67
2021/10/23 08:47:09;;;;;;;14.52;2.17;;;11.00;93.20;;;;;;5051121;28;20471;-70
2021/10/23 08:49:35;;;;;;;7.18;1.60;;;11.30;93.20;;;;;;5052078;28;20056;-73
2021/10/23 08:52:02;;;;;;;11.88;1.55;;;11.30;93.10;;;;;;5051619;28;20025;-71
2021/10/23 08:54:31;;;;;;;11.35;2.30;;;11.40;92.60;;;;;;5051916;28;20033;-70
2021/10/23 08:57:00;;;;;;;14.25;2.47;;;11.50;92.60;;;;;;5052072;28;20041;-71
2021/10/23 08:59:27;;;;;;;7.65;1.83;;;11.70;92.80;;;;;;5052121;28;20033;-72
2021/10/23 09:02:01;;;;;;;18.02;5.13;;;11.70;92.40;;;;;;5051855;28;20488;-71
2021/10/23 09:04:27;;;;;;;14.57;3.38;;;11.50;92.30;;;;;;5051711;28;20056;-70
2021/10/23 09:07:04;;;;;;;8.35;1.60;;;11.50;92.40;;;;;;5052444;28;20021;-69
2021/10/23 09:09:29;;;;;;;8.25;2.15;;;11.30;92.50;;;;;;5050743;28;20049;-70
2021/10/23 09:11:55;;;;;;;8.98;2.33;;;11.70;92.60;;;;;;5051447;28;20079;-71
2021/10/23 09:14:34;;;;;;;15.60;1.75;;;12.30;92.20;;;;;;5050367;28;20143;-72
2021/10/23 09:17:08;;;;;;;8.57;1.80;;;12.80;91.40;;;;;;5051784;28;20033;-72
2021/10/23 09:19:45;;;;;;;10.13;1.80;;;12.80;90.90;;;;;;5051446;28;20021;-73
2021/10/23 09:22:25;;;;;;;8.77;1.90;;;13.30;91.30;;;;;;5052140;28;20531;-78
2021/10/23 09:24:53;;;;;;;12.52;2.00;;;14.30;90.50;;;;;;5052121;28;20085;-73
2021/10/23 09:27:19;;;;;;;11.88;2.08;;;14.90;87.70;;;;;;5051781;28;20586;-72
2021/10/23 09:29:53;;;;;;;10.15;1.75;;;15.20;89.50;;;;;;5051932;28;20163;-72
2021/10/23 09:32:20;;;;;;;7.70;1.30;;;15.10;88.10;;;;;;5050248;28;20033;-73
2021/10/23 09:34:45;;;;;;;11.75;1.48;;;15.10;87.40;;;;;;5051102;28;20529;-74
2021/10/23 09:37:12;;;;;;;5.40;1.38;;;16.10;85.90;;;;;;5051970;28;20199;-72
2021/10/23 09:39:38;;;;;;;7.63;1.53;;;16.50;83.20;;;;;;5051489;28;20029;-76
2021/10/23 09:42:11;;;;;;;6.22;1.67;;;16.60;83.00;;;;;;5051167;28;20101;-74
2021/10/23 09:45:10;;;;;;;9.98;1.65;;;17.30;81.30;;;;;;5050256;28;20471;-72
2021/10/23 09:47:50;;;;;;;6.78;1.60;;;18.20;81.90;;;;;;5007021;28;20039;-73
2021/10/23 09:50:21;;;;;;;6.97;1.40;;;19.30;79.30;;;;;;5051491;28;20025;-73
2021/10/23 09:53:05;;;;;;;7.75;1.88;;;19.80;77.00;;;;;;5051247;28;20455;-74
2021/10/23 09:55:47;;;;;;;8.23;1.45;;;20.40;75.20;;;;;;5051400;28;20111;-73
2021/10/23 09:58:21;;;;;;;6.82;1.65;;;20.60;72.40;;;;;;5051884;28;20514;-73
2021/10/23 10:00:48;;;;;;;7.50;2.05;;;19.60;73.10;;;;;;5051066;28;20477;-74
2021/10/23 10:03:15;;;;;;;9.02;1.55;;;20.10;74.50;;;;;;5050694;28;20037;-76
2021/10/23 10:05:41;;;;;;;7.95;1.77;;;20.30;73.40;;;;;;5051426;28;20041;-75
2021/10/23 10:08:09;;;;;;;10.38;1.85;;;21.00;72.20;;;;;;5051070;28;20036;-76
2021/10/23 10:10:38;;;;;;;9.30;1.65;;;21.30;70.60;;;;;;5050903;28;20254;-73
2021/10/23 10:13:05;;;;;;;9.20;1.70;;;21.60;70.10;;;;;;5051469;28;20088;-71
2021/10/23 10:15:31;;;;;;;12.85;1.98;;;22.40;68.90;;;;;;5051098;28;20131;-72
2021/10/23 10:18:01;;;;;;;5.28;1.48;;;22.20;64.50;;;;;;5050687;28;20037;-73
2021/10/23 10:20:27;;;;;;;6.38;2.45;;;21.90;64.80;;;;;;5050820;28;20485;-72
2021/10/23 10:22:53;;;;;;;4.88;1.52;;;22.90;67.10;;;;;;5050503;28;20035;-73
2021/10/23 10:25:24;;;;;;;6.13;1.42;;;22.40;63.50;;;;;;5050845;28;20078;-73
2021/10/23 10:27:52;;;;;;;11.02;3.00;;;21.60;62.80;;;;;;5050736;28;20033;-74
2021/10/23 10:30:29;;;;;;;9.60;1.65;;;21.00;64.40;;;;;;5050654;28;20043;-73
2021/10/23 10:33:16;;;;;;;7.65;1.58;;;21.60;63.20;;;;;;5050500;28;20055;-72
2021/10/23 10:36:06;;;;;;;9.95;1.70;;;22.80;63.00;;;;;;5050914;28;20036;-73
2021/10/23 10:44:20;;;;;;;7.47;1.42;;;22.50;62.20;;;;;;5031084;28;20148;-74
2021/10/23 10:47:04;;;;;;;7.05;1.30;;;22.90;60.60;;;;;;5050650;28;20056;-74
2021/10/23 10:49:54;;;;;;;12.60;1.77;;;23.60;59.90;;;;;;5050416;28;20406;-73
2021/10/23 10:52:39;;;;;;;10.23;1.55;;;22.70;58.70;;;;;;5050941;28;20056;-74
2021/10/23 10:55:12;;;;;;;8.05;1.23;;;23.40;59.40;;;;;;5050488;28;20049;-73
2021/10/23 10:58:00;;;;;;;10.07;1.85;;;22.90;59.30;;;;;;5050729;28;20409;-72
2021/10/23 11:01:01;;;;;;;10.05;2.30;;;22.90;59.20;;;;;;5050557;28;20033;-72
2021/10/23 11:03:45;;;;;;;8.10;1.67;;;22.50;57.70;;;;;;5024237;28;20041;-73
2021/10/23 11:06:32;;;;;;;8.52;1.75;;;22.20;58.20;;;;;;5050104;28;20278;-73
2021/10/23 11:09:16;;;;;;;;;;;22.60;59.30;;;;;;5050815;28;20037;-73
2021/10/23 11:11:44;;;;;;;11.38;1.67;;;23.30;57.90;;;;;;5050301;28;20418;-72
2021/10/23 11:14:23;;;;;;;5.25;1.25;;;21.40;57.80;;;;;;5050353;28;20057;-73
2021/10/23 11:16:50;;;;;;;8.52;1.50;;;21.80;59.90;;;;;;5050183;28;20033;-73
2021/10/23 11:19:17;;;;;;;9.10;1.83;;;22.20;59.00;;;;;;5050787;28;20033;-72
2021/10/23 11:21:43;;;;;;;10.18;1.55;;;22.60;59.30;;;;;;5050245;28;20044;-72
2021/10/23 11:24:08;;;;;;;6.47;1.55;;;22.60;57.70;;;;;;5050081;28;20029;-71
2021/10/23 11:26:34;;;;;;;12.38;2.35;;;22.30;58.00;;;;;;5050434;28;20029;-73
2021/10/23 11:29:17;;;;;;;12.05;5.78;;;21.10;59.00;;;;;;5050128;28;20423;-72
2021/10/23 11:31:43;;;;;;;6.20;1.77;;;21.10;59.50;;;;;;5049589;28;20025;-72
2021/10/23 11:34:09;;;;;;;5.75;1.45;;;19.90;60.30;;;;;;5049157;28;20359;-73
2021/10/23 11:36:34;;;;;;;11.02;1.90;;;18.80;63.40;;;;;;5050011;28;20091;-73
2021/10/23 11:39:00;;;;;;;10.48;1.52;;;18.20;65.90;;;;;;5049845;28;20044;-72
2021/10/23 11:41:27;;;;;;;9.48;2.08;;;18.50;66.10;;;;;;5048753;28;20083;-73
2021/10/23 11:44:05;;;;;;;9.50;1.85;;;18.20;66.40;;;;;;5049803;28;20025;-72
2021/10/23 11:46:30;;;;;;;6.55;1.70;;;17.50;66.60;;;;;;5049820;28;20032;-75
2021/10/23 11:49:05;;;;;;;7.45;1.60;;;17.10;67.50;;;;;;5050141;28;20150;-73
2021/10/23 11:51:30;;;;;;;7.63;1.73;;;16.90;68.10;;;;;;5053151;28;20025;-73
2021/10/23 11:54:01;;;;;;;7.15;2.47;;;16.80;67.80;;;;;;5053343;28;20055;-73
2021/10/23 11:56:27;;;;;;;9.23;1.65;;;16.40;68.10;;;;;;5053466;28;20033;-73
2021/10/23 11:58:58;;;;;;;6.60;2.13;;;16.10;69.20;;;;;;5053095;28;20091;-72
2021/10/23 12:01:26;;;;;;;8.35;1.60;;;16.10;69.80;;;;;;5053204;28;20017;-72
2021/10/23 12:03:58;;;;;;;9.57;2.08;;;16.00;70.10;;;;;;5053317;28;20049;-73
2021/10/23 12:06:40;;;;;;;7.68;1.67;;;15.90;70.30;;;;;;5053378;28;20052;-72
2021/10/23 12:09:20;;;;;;;10.10;2.30;;;15.80;70.90;;;;;;5052963;28;20021;-75
2021/10/23 12:12:09;;;;;;;10.15;1.38;;;15.80;73.80;;;;;;5053074;28;20051;-74
2021/10/23 12:14:36;;;;;;;9.18;1.17;;;16.10;72.00;;;;;;5052937;28;20086;-74
2021/10/23 12:17:02;;;;;;;10.10;1.15;;;16.00;70.50;;;;;;5049415;28;20051;-74
2021/10/23 12:19:41;;;;;;;5.88;1.33;;;15.60;70.30;;;;;;5053035;28;20040;-75
2021/10/23 12:22:18;;;;;;;6.70;1.20;;;15.40;71.50;;;;;;5053296;28;20099;-74
2021/10/23 12:24:50;;;;;;;6.60;1.38;;;15.20;72.00;;;;;;5052912;28;20116;-73
2021/10/23 12:27:23;;;;;;;9.13;1.80;;;15.40;71.50;;;;;;5052779;28;20044;-72
2021/10/23 12:29:59;;;;;;;6.88;1.58;;;15.20;71.60;;;;;;5052958;28;20040;-73
2021/10/23 12:32:34;;;;;;;5.85;1.40;;;15.10;72.60;;;;;;5051599;28;20442;-72
2021/10/23 12:35:02;;;;;;;7.28;1.63;;;14.90;73.10;;;;;;5052780;28;20040;-75
2021/10/23 12:37:28;;;;;;;4.75;1.00;;;15.00;72.70;;;;;;5052703;28;20013;-77
2021/10/23 12:40:09;;;;;;;10.48;1.75;;;14.90;73.00;;;;;;5053284;28;20248;-75
2021/10/23 12:42:44;;;;;;;4.93;0.98;;;15.00;72.60;;;;;;5052500;28;20053;-73
2021/10/23 12:45:12;;;;;;;10.52;1.48;;;14.80;72.90;;;;;;5051388;28;20322;-73
2021/10/23 12:47:39;;;;;;;7.20;2.53;;;14.80;73.00;;;;;;5052118;28;20021;-72
2021/10/23 12:50:06;;;;;;;8.32;1.38;;;14.90;72.70;;;;;;5051897;28;20404;-73
2021/10/23 12:52:33;;;;;;;11.82;2.30;;;14.90;72.70;;;;;;5051971;28;20112;-72
2021/10/23 12:54:59;;;;;;;10.37;1.83;;;14.70;72.70;;;;;;5052507;28;20021;-72
2021/10/23 12:57:25;;;;;;;10.60;2.42;;;14.70;73.10;;;;;;5051007;28;20590;-72